Lohman, Missouri
Current Conditions -  °F | °C
As of 2:53 AM on Sunday 21 Dec 2014 (Local Time) from KJEF Reporting Station
Overcast Overcast  
Wind Chill: 39°   Ceiling: 2600
Heat Index: 42°   Visibility: 10mi
Dew Point: 35°   Wind: 5mph
Humidity: 76%   Direction: 110°ESE
Pressure: 30.16"   Gusts: NA
Location:  38.54°N, 92.36°W
Report Text: KJEF 210853Z AUTO 11004KT 10SM OVC026 06/02 A3016 RMK AO2 SLP205 T00560017 58018
Loading
Personal Weather Stations






























Interactive Weather Map New forecast layout! Learn more

10-Day Weather Forecast

Advertisements
Track Severe Weather on mobile